Paul R Tregurtha — WYR4481 — position and weather

sailwx.info

Track history (hours):
 
Tides and Currents Weather Stations Pressure Air Temp Water Temp Dewpoint Dewpoint Depression Visibility Wind Speed Wind Dir Waves Ship Positions

Paul R Tregurtha

Owner: THE INTERLAKE STEAMSHIP COMPANY, Middleburg Heights, OH. More information available from US FCC via Universal Licensing System and Coast Guard Vessel Documentation Center.

Last reported at 2015-Mar-30 03:00 UTC. Time now 2015-Mar-30 04:23 UTC.
Position N 44°54' W 087°24'.

Length 308 m; draft 8.5 m.

Type: Cargo ship. MMSI: 366904940.

Wind from 270 at 19 knots

Barometer 1006.9 mb
Air temperature 3.3 ° C
Water temperature 2.1 ° C

Date/timePositionNaut miles runAvg speedWind from/ knotsBaromVisibWave heightAir tempDewpointWater temp
2015-Mar-30 03:00N 44°54' W 087°24'0 0.0 270 / 191006.9 3.3 2.1
2015-Mar-30 02:00N 44°54' W 087°24'0 0.0 270 / 181005.9 2.4 1.8
2015-Mar-30 01:00N 44°54' W 087°24'0 0.0 280 / 221004.2 2.8 2.1
2015-Mar-30 00:00N 44°54' W 087°24'0 0.0 270 / 221002.2 2.5 1.4
2015-Mar-29 17:00N 44°54' W 087°24'0 0.0 360 / 241006.2 0.4 1.3
2015-Mar-29 15:00N 44°54' W 087°24'0 0.0 190 / 231008.9 1.8 1.3
2015-Mar-29 14:00N 44°54' W 087°24'0 0.0 200 / 231011.3 1.1 1.3
2015-Mar-29 12:00N 44°54' W 087°24'0 0.0 190 / 141015.4 -0.6 1.3
2015-Mar-29 11:00N 44°54' W 087°24'0 0.0 190 / 161016.0 -0.2 1.3
2015-Mar-29 10:00N 44°54' W 087°24'0 0.0 200 / 161016.4 -0.2 1.3
2015-Mar-29 09:00N 44°54' W 087°24'0 0.0 190 / 161017.1 -0.3 1.3
2015-Mar-29 07:00N 44°54' W 087°24'0 0.0 200 / 131019.4 -1.2 1.3
2015-Mar-29 06:00N 44°54' W 087°24'0 0.0 210 / 131020.4 -1.4 1.3
2015-Mar-29 05:00N 44°54' W 087°24'0 0.0 200 / 131021.1 -1.4 1.3
2015-Mar-29 04:00N 44°54' W 087°24'0 0.0 190 / 141022.1 -1.3 1.3
2015-Mar-29 03:00N 44°54' W 087°24'0 0.0 180 / 161022.1 -0.9 1.3
2015-Mar-29 02:00N 44°54' W 087°24'0 0.0 190 / 161022.5 -1.0 1.3
2015-Mar-29 01:00N 44°54' W 087°24'0 0.0 180 / 151022.8 -0.6 1.3
2015-Mar-29 00:00N 44°54' W 087°24'0 0.0 180 / 141022.8 -0.0 1.2
2015-Mar-28 23:00N 44°54' W 087°24'0 0.0 180 / 141023.2 1.8 1.2
2015-Mar-28 20:00N 44°54' W 087°24'6 2.0 140 / 81024.5 3.1 2.0
2015-Mar-28 17:00N 44°48' W 087°24'0 0.0 360 / 51026.5 -2.4 1.7
2015-Mar-28 16:00N 44°48' W 087°24'0 0.0 250 / 71027.2 -1.9 1.6
2015-Mar-28 11:00N 44°48' W 087°24'0 0.0 350 / 31025.5 -9.2 1.7
2015-Mar-28 09:00N 44°48' W 087°24'0 0.0 350 / 31024.8 -8.7 1.8
2015-Mar-28 08:00N 44°48' W 087°24'0 0.0 330 / 41024.5 -8.2 1.8
2015-Mar-28 07:00N 44°48' W 087°24'0 0.0 350 / 41024.2 -8.3 1.9
2015-Mar-28 06:00N 44°48' W 087°24'0 0.0 330 / 51024.2 -8.1 1.8
2015-Mar-28 04:00N 44°48' W 087°24'0 0.0 350 / 31023.5 -6.6 1.7
2015-Mar-28 03:00N 44°48' W 087°24'0 0.0 050 / 41023.5 -6.1 1.8
2015-Mar-28 02:00N 44°48' W 087°24'0 0.0 060 / 41023.2 -5.1 1.8
2015-Mar-28 00:00N 44°48' W 087°24'0 0.0 070 / 51022.5 -4.0 1.6
2015-Mar-27 22:00N 44°48' W 087°24'0 0.0 350 / 81022.1 -4.5 1.7
2015-Mar-27 20:00N 44°48' W 087°24'0 0.0 330 / 101022.5 -5.7 1.6
2015-Mar-27 19:00N 44°48' W 087°24'0 0.0 300 / 101022.8 -6.2 1.7
2015-Mar-27 18:00N 44°48' W 087°24'0 0.0 340 / 121023.2 -7.2 1.7
2015-Mar-27 17:00N 44°48' W 087°24'0 0.0 340 / 141023.2 -8.3 1.6
2015-Mar-27 14:00N 44°48' W 087°24'0 0.0 060 / 101022.8 -8.3 1.6
2015-Mar-27 13:00N 44°48' W 087°24'0 0.0 350 / 131022.1 -9.7 1.8
2015-Mar-27 11:00N 44°48' W 087°24'0 0.0 360 / 91021.5 -9.4 1.9
2015-Mar-27 10:00N 44°48' W 087°24'0 0.0 330 / 131020.8 -9.0 2.0
2015-Mar-27 08:00N 44°48' W 087°24'0 0.0 340 / 141020.4 -7.9 1.9
2015-Mar-27 06:00N 44°48' W 087°24'0 0.0 340 / 141020.4 -7.2 2.4
2015-Mar-27 05:00N 44°48' W 087°24'0 0.0 330 / 151020.1 -6.7 2.5
2015-Mar-27 04:00N 44°48' W 087°24'0 0.0 330 / 171020.1 -6.8 2.6
2015-Mar-27 00:00N 44°48' W 087°24'0 0.0 350 / 101017.7 -3.2 2.5
2015-Mar-26 23:00N 44°48' W 087°24'0 0.0 350 / 141016.7 -2.7 2.4
2015-Mar-26 22:00N 44°48' W 087°24'0 0.0 350 / 151015.4 -2.1 2.5
2015-Mar-26 21:00N 44°48' W 087°24'0 0.0 340 / 161014.3 -1.5 2.5
2015-Mar-26 20:00N 44°48' W 087°24'0 0.0 350 / 151014.0 -1.0 2.5
2015-Mar-26 19:00N 44°48' W 087°24'0 0.0 340 / 161013.7 -1.3 2.5
2015-Mar-26 18:00N 44°48' W 087°24'0 0.0 340 / 161013.7 -1.2 2.5
2015-Mar-26 17:00N 44°48' W 087°24'0 0.0 360 / 141013.7 -1.0 2.5
2015-Mar-26 16:00N 44°48' W 087°24'0 0.0 320 / 161013.3 0.1 2.5
2015-Mar-26 15:00N 44°48' W 087°24'0 0.0 340 / 181012.7 0.5 2.5
2015-Mar-26 14:00N 44°48' W 087°24'0 0.0 310 / 121012.3 1.0 2.6
2015-Mar-26 13:00N 44°48' W 087°24'0 0.0 320 / 101012.0 1.3 2.5
2015-Mar-26 12:00N 44°48' W 087°24'0 0.0 270 / 101011.3 1.5 2.5
2015-Mar-26 11:00N 44°48' W 087°24'0 0.0 290 / 101011.0 1.6 2.5
2015-Mar-26 10:00N 44°48' W 087°24'0 0.0 290 / 91011.0 1.8 2.5
2015-Mar-26 09:00N 44°48' W 087°24'0 0.0 320 / 111012.0 2.2 2.6
2015-Mar-26 08:00N 44°48' W 087°24'0 0.0 320 / 91012.3 2.3 2.5
2015-Mar-26 07:00N 44°48' W 087°24'0 0.0 300 / 91012.7 2.8 2.5
2015-Mar-26 06:00N 44°48' W 087°24'0 0.0 300 / 181011.6 3.3 2.6
2015-Mar-26 05:00N 44°48' W 087°24'0 0.0 270 / 81012.0 3.5 2.6
2015-Mar-26 04:00N 44°48' W 087°24'0 0.0 260 / 81011.6 3.5 2.5
2015-Mar-26 03:00N 44°48' W 087°24'0 0.0 250 / 81011.3 3.5 2.6
2015-Mar-26 02:00N 44°48' W 087°24'0 0.0 280 / 121011.3 3.9 2.5
2015-Mar-26 00:00N 44°48' W 087°24'0 0.0 260 / 121010.6 4.1 2.4
2015-Mar-25 23:00N 44°48' W 087°24'0 0.0 270 / 111009.6 4.2 2.5
2015-Mar-25 22:00N 44°48' W 087°24'0 0.0 270 / 91008.9 4.0 2.5
2015-Mar-25 21:00N 44°48' W 087°24'0 0.0 260 / 111008.6 3.8 2.4
2015-Mar-25 20:00N 44°48' W 087°24'0 0.0 240 / 151007.9 3.1 2.4
2015-Mar-25 19:00N 44°48' W 087°24'0 0.0 240 / 121007.9 2.3 2.4
2015-Mar-25 18:00N 44°48' W 087°24'0 0.0 250 / 151007.2 2.0 2.3
2015-Mar-25 16:00N 44°48' W 087°24'0 0.0 010 / 91007.2 1.0 2.2
2015-Mar-25 15:00N 44°48' W 087°24'0 0.0 290 / 111007.2 1.1 2.2
2015-Mar-25 14:00N 44°48' W 087°24'0 0.0 280 / 21007.6 0.4 2.2
2015-Mar-25 12:00N 44°48' W 087°24'0 0.0 120 / 21007.9 0.1 2.1
2015-Mar-25 11:00N 44°48' W 087°24'0 0.0 080 / 51008.6 -0.1 2.1
2015-Mar-25 10:00N 44°48' W 087°24'0 0.0 090 / 51009.9 -0.3 2.2
2015-Mar-25 09:00N 44°48' W 087°24'0 0.0 070 / 41011.6 0.7 2.3
2015-Mar-25 08:00N 44°48' W 087°24'0 0.0 060 / 61013.3 1.3 2.1
2015-Mar-25 07:00N 44°48' W 087°24'0 0.0 160 / 61014.0 1.9 2.2
2015-Mar-25 06:00N 44°48' W 087°24'0 0.0 100 / 51015.7 1.1 2.2
2015-Mar-25 05:00N 44°48' W 087°24'0 0.0 110 / 51017.1 -0.0 2.1
2015-Mar-25 03:00N 44°48' W 087°24'0 0.0 100 / 41019.4 -0.3 2.1
2015-Mar-25 02:00N 44°48' W 087°24'0 0.0 070 / 31020.4 -0.0 2.1
2015-Mar-25 01:00N 44°48' W 087°24'0 0.0 100 / 41020.8 0.5 2.0
2015-Mar-25 00:00N 44°48' W 087°24'0 0.0 090 / 51020.8 1.3 2.0
2015-Mar-24 23:00N 44°48' W 087°24'0 0.0 120 / 31021.1 3.6 1.9
2015-Mar-24 22:00N 44°48' W 087°24'0 0.0 130 / 41022.1 4.1 2.0
2015-Mar-24 21:00N 44°48' W 087°24'0 0.0 190 / 41023.2 3.9 1.9
2015-Mar-24 20:00N 44°48' W 087°24'0 0.0 160 / 41023.8 2.5 1.9
2015-Mar-24 18:00N 44°48' W 087°24'0 0.0 100 / 41025.2 4.2 2.0
2015-Mar-24 17:00N 44°48' W 087°24'0 0.0 300 / 51025.2 3.7 2.0
2015-Mar-24 16:00N 44°48' W 087°24'0 0.0 240 / 21026.2 2.0 1.9
2015-Mar-24 15:00N 44°48' W 087°24'0 0.0 340 / 51026.5 -2.3 1.8
2015-Mar-24 14:00N 44°48' W 087°24'0 0.0 320 / 31026.5 -4.0 1.9
2015-Mar-24 13:00N 44°48' W 087°24'0 0.0 360 / 21026.5 -4.7 1.9
2015-Mar-24 11:00N 44°48' W 087°24'0 0.0 290 / 11025.9 -6.1 1.8
2015-Mar-24 10:00N 44°48' W 087°24'0 0.0 280 / 11025.9 -6.5 1.8
2015-Mar-24 09:00N 44°48' W 087°24'0 0.0 340 / 11025.9 -5.9 1.8
2015-Mar-24 08:00N 44°48' W 087°24'0 0.0 170 / 11025.9 -5.6 1.7
2015-Mar-24 07:00N 44°48' W 087°24'0 0.0 330 / 11026.5 -5.6 1.8
2015-Mar-24 06:00N 44°48' W 087°24'0 0.0 020 / 11026.5 -5.0 1.9
2015-Mar-24 05:00N 44°48' W 087°24'0 0.0 290 / 11026.2 -4.8 1.9
2015-Mar-24 04:00N 44°48' W 087°24'0 0.0 080 / 21026.5 -4.2 1.9
2015-Mar-24 03:00N 44°48' W 087°24'0 0.0 090 / 11026.5 -4.3 1.8
2015-Mar-24 02:00N 44°48' W 087°24'0 0.0 350 / 31026.5 -4.0 1.8
2015-Mar-24 01:00N 44°48' W 087°24'0 0.0 060 / 41026.5 -3.5 2.0
2015-Mar-24 00:00N 44°48' W 087°24'0 0.0 030 / 41026.5 -2.4 1.9
2015-Mar-23 23:00N 44°48' W 087°24'0 0.0 060 / 71026.5 -2.2 1.8
2015-Mar-23 22:00N 44°48' W 087°24'0 0.0 060 / 71026.5 -1.6 1.9
2015-Mar-23 21:00N 44°48' W 087°24'0 0.0 040 / 101026.2 -1.9 1.8
2015-Mar-23 20:00N 44°48' W 087°24'0 0.0 080 / 81027.2 -2.0 1.8
2015-Mar-23 19:00N 44°48' W 087°24'0 0.0 110 / 61027.6 -0.9 1.8
2015-Mar-23 18:00N 44°48' W 087°24'0 0.0 090 / 111028.2 -2.1 1.8
2015-Mar-23 17:00N 44°48' W 087°24'0 0.0 110 / 81028.2 -2.5 1.9
2015-Mar-23 16:00N 44°48' W 087°24'0 0.0 160 / 61028.2 -2.7 1.9
2015-Mar-23 15:00N 44°48' W 087°24'0 0.0 090 / 81027.9 -3.7 1.9
2015-Mar-23 14:00N 44°48' W 087°24'0 0.0 100 / 101027.9 -4.1 1.9
2015-Mar-23 13:00N 44°48' W 087°24'0 0.0 100 / 81028.2 -4.5 1.9
2015-Mar-23 12:00N 44°48' W 087°24'0 0.0 090 / 71027.9 -5.0 1.8
2015-Mar-23 11:00N 44°48' W 087°24'0 0.0 090 / 71027.6 -5.1 1.8
2015-Mar-23 10:00N 44°48' W 087°24'0 0.0 090 / 71027.6 -4.7 1.8
2015-Mar-23 09:00N 44°48' W 087°24'0 0.0 100 / 71027.6 -4.1 1.8
2015-Mar-23 08:00N 44°48' W 087°24'0 0.0 080 / 31027.6 -4.1 1.7
2015-Mar-23 06:00N 44°48' W 087°24'0 0.0 070 / 31027.2 -3.0 1.6
2015-Mar-23 05:00N 44°48' W 087°24'0 0.0 040 / 31027.2 -2.9 1.6
2015-Mar-23 04:00N 44°48' W 087°24'0 0.0 010 / 21026.9 -2.7 1.6
2015-Mar-23 03:00N 44°48' W 087°24'0 0.0 200 / 11026.5 -2.8 1.8
2015-Mar-23 02:00N 44°48' W 087°24'0 0.0 100 / 21025.9 -1.9 1.7
2015-Mar-23 01:00N 44°48' W 087°24'0 0.0 090 / 21025.9 -1.5 1.8
2015-Mar-23 00:00N 44°48' W 087°24'0 0.0 060 / 31025.9 -1.1 1.9
2015-Mar-22 23:00N 44°48' W 087°24'0 0.0 140 / 81025.5 -0.0 2.0
2015-Mar-22 22:00N 44°48' W 087°24'0 0.0 130 / 81025.9 0.5 3.1
2015-Mar-22 21:00N 44°48' W 087°24'0 0.0 150 / 101025.9 1.6 3.4
2015-Mar-22 20:00N 44°48' W 087°24'0 0.0 310 / 51026.2 -0.1 2.9
2015-Mar-22 19:00N 44°48' W 087°24'0 0.0 300 / 41026.9 -1.3 3.1
2015-Mar-22 18:00N 44°48' W 087°24'0 0.0 010 / 61027.6 -2.3 2.8
2015-Mar-22 17:00N 44°48' W 087°24'0 0.0 330 / 51028.2 -3.1 2.9
2015-Mar-22 16:00N 44°48' W 087°24'0 0.0 020 / 71028.2 -4.0 3.0
2015-Mar-22 15:00N 44°48' W 087°24'0 0.0 010 / 81028.2 -4.5 3.1
2015-Mar-22 14:00N 44°48' W 087°24'0 0.0 350 / 51028.2 -4.7 2.9
2015-Mar-22 13:00N 44°48' W 087°24'0 0.0 1028.2 -5.5 2.9
2015-Mar-22 12:00N 44°48' W 087°24'0 0.0 340 / 21027.2 -5.3 2.8
2015-Mar-22 11:00N 44°48' W 087°24'0 0.0 250 / 11026.9 -4.9 2.8
2015-Mar-22 10:00N 44°48' W 087°24'0 0.0 280 / 11026.9 -4.9 2.7
2015-Mar-22 09:00N 44°48' W 087°24'0 0.0 230 / 11026.9 -5.0 2.7
2015-Mar-22 06:00N 44°48' W 087°24'0 0.0 110 / 21026.5 -5.1 2.8
2015-Mar-22 04:00N 44°48' W 087°24'0 0.0 110 / 61025.9 -4.7 2.7
2015-Mar-22 03:00N 44°48' W 087°24'0 0.0 100 / 61024.8 -4.4 2.9
2015-Mar-22 01:00N 44°48' W 087°24'0 0.0 110 / 61023.8 -3.7 3.0
2015-Mar-22 00:00N 44°48' W 087°24'0 0.0 090 / 81023.5 -3.3 2.9
2015-Mar-21 21:00N 44°48' W 087°24'0 0.0 130 / 61022.1 0.1 2.9
2015-Mar-21 17:00N 44°48' W 087°24'0 0.0 1022.1 -1.0 2.7
2015-Mar-21 15:00N 44°48' W 087°24'0 0.0 080 / 61020.8 -1.5 2.7
2015-Mar-21 12:00N 44°48' W 087°24'0 0.0 1017.4 0.3 2.8
2015-Mar-21 11:00N 44°48' W 087°24'0 0.0 340 / 161015.7 1.3 3.0
2015-Mar-21 10:00N 44°48' W 087°24'0 0.0 340 / 121014.7 1.5 2.8
2015-Mar-21 08:00N 44°48' W 087°24'0 0.0 340 / 101013.0 5.0 2.8
2015-Mar-21 05:00N 44°48' W 087°24'0 0.0 280 / 121012.7 7.0 2.6
2015-Mar-21 03:00N 44°48' W 087°24'0 0.0 310 / 61013.0 7.3 2.7
2015-Mar-21 01:00N 44°48' W 087°24'0 0.0 300 / 51012.3 9.8 2.7
2015-Mar-21 00:00N 44°48' W 087°24'0 0.0 240 / 51012.3 10.3 2.7
2015-Mar-20 23:00N 44°48' W 087°24'0 0.0 280 / 81012.0 11.4 2.6
2015-Mar-20 21:00N 44°48' W 087°24'0 0.0 280 / 121012.3 11.4 2.7
2015-Mar-20 20:00N 44°48' W 087°24'0 0.0 240 / 121012.7 10.1 2.7
2015-Mar-20 19:00N 44°48' W 087°24'0 0.0 280 / 91013.3 9.3 2.4
2015-Mar-20 18:00N 44°48' W 087°24'0 0.0 260 / 121014.0 8.3 2.4
2015-Mar-20 17:00N 44°48' W 087°24'0 0.0 260 / 121014.3 7.4 2.4
2015-Mar-20 16:00N 44°48' W 087°24'0 0.0 240 / 101014.3 6.0 2.4
2015-Mar-20 15:00N 44°48' W 087°24'0 0.0 220 / 101015.0 3.7 2.7
2015-Mar-20 14:00N 44°48' W 087°24'0 0.0 220 / 61015.0 2.7 2.6
2015-Mar-20 13:00N 44°48' W 087°24'0 0.0 240 / 31015.7 2.0 2.7
2015-Mar-20 12:00N 44°48' W 087°24'0 0.0 210 / 61015.7 1.8 2.4
2015-Mar-20 11:00N 44°48' W 087°24'0 0.0 180 / 41015.7 1.8 2.5
2015-Mar-20 10:00N 44°48' W 087°24'0 0.0 200 / 31016.0 1.6 2.5
2015-Mar-20 09:00N 44°48' W 087°24'0 0.0 360 / 41016.4 1.8 2.6
2015-Mar-20 08:00N 44°48' W 087°24'0 0.0 210 / 71017.1 1.9 2.5
2015-Mar-20 07:00N 44°48' W 087°24'0 0.0 210 / 61017.4 1.7 2.4
2015-Mar-20 06:00N 44°48' W 087°24'0 0.0 190 / 71017.7 1.2 2.3
2015-Mar-20 05:00N 44°48' W 087°24'0 0.0 150 / 31018.4 1.6 2.3
2015-Mar-20 04:00N 44°48' W 087°24'0 0.0 200 / 31018.8 1.2 2.6
2015-Mar-20 03:00N 44°48' W 087°24'   170 / 41019.4 1.0 2.9
Track history (hours):
 
Tides and Currents Weather Stations Pressure Air Temp Water Temp Dewpoint Dewpoint Depression Visibility Wind Speed Wind Dir Waves Ship Positions

Paul R Tregurtha

Owner: THE INTERLAKE STEAMSHIP COMPANY, Middleburg Heights, OH. More information available from US FCC via Universal Licensing System and Coast Guard Vessel Documentation Center.

Last reported at 2015-Mar-30 03:00 UTC. Time now 2015-Mar-30 04:23 UTC.
Position N 44°54' W 087°24'.

Length 308 m; draft 8.5 m.

Type: Cargo ship. MMSI: 366904940.

Wind from 270 at 19 knots

Barometer 1006.9 mb
Air temperature 3.3 ° C
Water temperature 2.1 ° C

Date/timePositionNaut miles runAvg speedWind from/ knotsBaromVisibWave heightAir tempDewpointWater temp
2015-Mar-30 03:00N 44°54' W 087°24'0 0.0 270 / 191006.9 3.3 2.1
2015-Mar-30 02:00N 44°54' W 087°24'0 0.0 270 / 181005.9 2.4 1.8
2015-Mar-30 01:00N 44°54' W 087°24'0 0.0 280 / 221004.2 2.8 2.1
2015-Mar-30 00:00N 44°54' W 087°24'0 0.0 270 / 221002.2 2.5 1.4
2015-Mar-29 17:00N 44°54' W 087°24'0 0.0 360 / 241006.2 0.4 1.3
2015-Mar-29 15:00N 44°54' W 087°24'0 0.0 190 / 231008.9 1.8 1.3
2015-Mar-29 14:00N 44°54' W 087°24'0 0.0 200 / 231011.3 1.1 1.3
2015-Mar-29 12:00N 44°54' W 087°24'0 0.0 190 / 141015.4 -0.6 1.3
2015-Mar-29 11:00N 44°54' W 087°24'0 0.0 190 / 161016.0 -0.2 1.3
2015-Mar-29 10:00N 44°54' W 087°24'0 0.0 200 / 161016.4 -0.2 1.3
2015-Mar-29 09:00N 44°54' W 087°24'0 0.0 190 / 161017.1 -0.3 1.3
2015-Mar-29 07:00N 44°54' W 087°24'0 0.0 200 / 131019.4 -1.2 1.3
2015-Mar-29 06:00N 44°54' W 087°24'0 0.0 210 / 131020.4 -1.4 1.3
2015-Mar-29 05:00N 44°54' W 087°24'0 0.0 200 / 131021.1 -1.4 1.3
2015-Mar-29 04:00N 44°54' W 087°24'0 0.0 190 / 141022.1 -1.3 1.3
2015-Mar-29 03:00N 44°54' W 087°24'0 0.0 180 / 161022.1 -0.9 1.3
2015-Mar-29 02:00N 44°54' W 087°24'0 0.0 190 / 161022.5 -1.0 1.3
2015-Mar-29 01:00N 44°54' W 087°24'0 0.0 180 / 151022.8 -0.6 1.3
2015-Mar-29 00:00N 44°54' W 087°24'0 0.0 180 / 141022.8 -0.0 1.2
2015-Mar-28 23:00N 44°54' W 087°24'0 0.0 180 / 141023.2 1.8 1.2
2015-Mar-28 20:00N 44°54' W 087°24'6 2.0 140 / 81024.5 3.1 2.0
2015-Mar-28 17:00N 44°48' W 087°24'0 0.0 360 / 51026.5 -2.4 1.7
2015-Mar-28 16:00N 44°48' W 087°24'0 0.0 250 / 71027.2 -1.9 1.6
2015-Mar-28 11:00N 44°48' W 087°24'0 0.0 350 / 31025.5 -9.2 1.7
2015-Mar-28 09:00N 44°48' W 087°24'0 0.0 350 / 31024.8 -8.7 1.8
2015-Mar-28 08:00N 44°48' W 087°24'0 0.0 330 / 41024.5 -8.2 1.8
2015-Mar-28 07:00N 44°48' W 087°24'0 0.0 350 / 41024.2 -8.3 1.9
2015-Mar-28 06:00N 44°48' W 087°24'0 0.0 330 / 51024.2 -8.1 1.8
2015-Mar-28 04:00N 44°48' W 087°24'0 0.0 350 / 31023.5 -6.6 1.7
2015-Mar-28 03:00N 44°48' W 087°24'0 0.0 050 / 41023.5 -6.1 1.8
2015-Mar-28 02:00N 44°48' W 087°24'0 0.0 060 / 41023.2 -5.1 1.8
2015-Mar-28 00:00N 44°48' W 087°24'0 0.0 070 / 51022.5 -4.0 1.6
2015-Mar-27 22:00N 44°48' W 087°24'0 0.0 350 / 81022.1 -4.5 1.7
2015-Mar-27 20:00N 44°48' W 087°24'0 0.0 330 / 101022.5 -5.7 1.6
2015-Mar-27 19:00N 44°48' W 087°24'0 0.0 300 / 101022.8 -6.2 1.7
2015-Mar-27 18:00N 44°48' W 087°24'0 0.0 340 / 121023.2 -7.2 1.7
2015-Mar-27 17:00N 44°48' W 087°24'0 0.0 340 / 141023.2 -8.3 1.6
2015-Mar-27 14:00N 44°48' W 087°24'0 0.0 060 / 101022.8 -8.3 1.6
2015-Mar-27 13:00N 44°48' W 087°24'0 0.0 350 / 131022.1 -9.7 1.8
2015-Mar-27 11:00N 44°48' W 087°24'0 0.0 360 / 91021.5 -9.4 1.9
2015-Mar-27 10:00N 44°48' W 087°24'0 0.0 330 / 131020.8 -9.0 2.0
2015-Mar-27 08:00N 44°48' W 087°24'0 0.0 340 / 141020.4 -7.9 1.9
2015-Mar-27 06:00N 44°48' W 087°24'0 0.0 340 / 141020.4 -7.2 2.4
2015-Mar-27 05:00N 44°48' W 087°24'0 0.0 330 / 151020.1 -6.7 2.5
2015-Mar-27 04:00N 44°48' W 087°24'0 0.0 330 / 171020.1 -6.8 2.6
2015-Mar-27 00:00N 44°48' W 087°24'0 0.0 350 / 101017.7 -3.2 2.5
2015-Mar-26 23:00N 44°48' W 087°24'0 0.0 350 / 141016.7 -2.7 2.4
2015-Mar-26 22:00N 44°48' W 087°24'0 0.0 350 / 151015.4 -2.1 2.5
2015-Mar-26 21:00N 44°48' W 087°24'0 0.0 340 / 161014.3 -1.5 2.5
2015-Mar-26 20:00N 44°48' W 087°24'0 0.0 350 / 151014.0 -1.0 2.5
2015-Mar-26 19:00N 44°48' W 087°24'0 0.0 340 / 161013.7 -1.3 2.5
2015-Mar-26 18:00N 44°48' W 087°24'0 0.0 340 / 161013.7 -1.2 2.5
2015-Mar-26 17:00N 44°48' W 087°24'0 0.0 360 / 141013.7 -1.0 2.5
2015-Mar-26 16:00N 44°48' W 087°24'0 0.0 320 / 161013.3 0.1 2.5
2015-Mar-26 15:00N 44°48' W 087°24'0 0.0 340 / 181012.7 0.5 2.5
2015-Mar-26 14:00N 44°48' W 087°24'0 0.0 310 / 121012.3 1.0 2.6
2015-Mar-26 13:00N 44°48' W 087°24'0 0.0 320 / 101012.0 1.3 2.5
2015-Mar-26 12:00N 44°48' W 087°24'0 0.0 270 / 101011.3 1.5 2.5
2015-Mar-26 11:00N 44°48' W 087°24'0 0.0 290 / 101011.0 1.6 2.5
2015-Mar-26 10:00N 44°48' W 087°24'0 0.0 290 / 91011.0 1.8 2.5
2015-Mar-26 09:00N 44°48' W 087°24'0 0.0 320 / 111012.0 2.2 2.6
2015-Mar-26 08:00N 44°48' W 087°24'0 0.0 320 / 91012.3 2.3 2.5
2015-Mar-26 07:00N 44°48' W 087°24'0 0.0 300 / 91012.7 2.8 2.5
2015-Mar-26 06:00N 44°48' W 087°24'0 0.0 300 / 181011.6 3.3 2.6
2015-Mar-26 05:00N 44°48' W 087°24'0 0.0 270 / 81012.0 3.5 2.6
2015-Mar-26 04:00N 44°48' W 087°24'0 0.0 260 / 81011.6 3.5 2.5
2015-Mar-26 03:00N 44°48' W 087°24'0 0.0 250 / 81011.3 3.5 2.6
2015-Mar-26 02:00N 44°48' W 087°24'0 0.0 280 / 121011.3 3.9 2.5
2015-Mar-26 00:00N 44°48' W 087°24'0 0.0 260 / 121010.6 4.1 2.4
2015-Mar-25 23:00N 44°48' W 087°24'0 0.0 270 / 111009.6 4.2 2.5
2015-Mar-25 22:00N 44°48' W 087°24'0 0.0 270 / 91008.9 4.0 2.5
2015-Mar-25 21:00N 44°48' W 087°24'0 0.0 260 / 111008.6 3.8 2.4
2015-Mar-25 20:00N 44°48' W 087°24'0 0.0 240 / 151007.9 3.1 2.4
2015-Mar-25 19:00N 44°48' W 087°24'0 0.0 240 / 121007.9 2.3 2.4
2015-Mar-25 18:00N 44°48' W 087°24'0 0.0 250 / 151007.2 2.0 2.3
2015-Mar-25 16:00N 44°48' W 087°24'0 0.0 010 / 91007.2 1.0 2.2
2015-Mar-25 15:00N 44°48' W 087°24'0 0.0 290 / 111007.2 1.1 2.2
2015-Mar-25 14:00N 44°48' W 087°24'0 0.0 280 / 21007.6 0.4 2.2
2015-Mar-25 12:00N 44°48' W 087°24'0 0.0 120 / 21007.9 0.1 2.1
2015-Mar-25 11:00N 44°48' W 087°24'0 0.0 080 / 51008.6 -0.1 2.1
2015-Mar-25 10:00N 44°48' W 087°24'0 0.0 090 / 51009.9 -0.3 2.2
2015-Mar-25 09:00N 44°48' W 087°24'0 0.0 070 / 41011.6 0.7 2.3
2015-Mar-25 08:00N 44°48' W 087°24'0 0.0 060 / 61013.3 1.3 2.1
2015-Mar-25 07:00N 44°48' W 087°24'0 0.0 160 / 61014.0 1.9 2.2
2015-Mar-25 06:00N 44°48' W 087°24'0 0.0 100 / 51015.7 1.1 2.2
2015-Mar-25 05:00N 44°48' W 087°24'0 0.0 110 / 51017.1 -0.0 2.1
2015-Mar-25 03:00N 44°48' W 087°24'0 0.0 100 / 41019.4 -0.3 2.1
2015-Mar-25 02:00N 44°48' W 087°24'0 0.0 070 / 31020.4 -0.0 2.1
2015-Mar-25 01:00N 44°48' W 087°24'0 0.0 100 / 41020.8 0.5 2.0
2015-Mar-25 00:00N 44°48' W 087°24'0 0.0 090 / 51020.8 1.3 2.0
2015-Mar-24 23:00N 44°48' W 087°24'0 0.0 120 / 31021.1 3.6 1.9
2015-Mar-24 22:00N 44°48' W 087°24'0 0.0 130 / 41022.1 4.1 2.0
2015-Mar-24 21:00N 44°48' W 087°24'0 0.0 190 / 41023.2 3.9 1.9
2015-Mar-24 20:00N 44°48' W 087°24'0 0.0 160 / 41023.8 2.5 1.9
2015-Mar-24 18:00N 44°48' W 087°24'0 0.0 100 / 41025.2 4.2 2.0
2015-Mar-24 17:00N 44°48' W 087°24'0 0.0 300 / 51025.2 3.7 2.0
2015-Mar-24 16:00N 44°48' W 087°24'0 0.0 240 / 21026.2 2.0 1.9
2015-Mar-24 15:00N 44°48' W 087°24'0 0.0 340 / 51026.5 -2.3 1.8
2015-Mar-24 14:00N 44°48' W 087°24'0 0.0 320 / 31026.5 -4.0 1.9
2015-Mar-24 13:00N 44°48' W 087°24'0 0.0 360 / 21026.5 -4.7 1.9
2015-Mar-24 11:00N 44°48' W 087°24'0 0.0 290 / 11025.9 -6.1 1.8
2015-Mar-24 10:00N 44°48' W 087°24'0 0.0 280 / 11025.9 -6.5 1.8
2015-Mar-24 09:00N 44°48' W 087°24'0 0.0 340 / 11025.9 -5.9 1.8
2015-Mar-24 08:00N 44°48' W 087°24'0 0.0 170 / 11025.9 -5.6 1.7
2015-Mar-24 07:00N 44°48' W 087°24'0 0.0 330 / 11026.5 -5.6 1.8
2015-Mar-24 06:00N 44°48' W 087°24'0 0.0 020 / 11026.5 -5.0 1.9
2015-Mar-24 05:00N 44°48' W 087°24'0 0.0 290 / 11026.2 -4.8 1.9
2015-Mar-24 04:00N 44°48' W 087°24'0 0.0 080 / 21026.5 -4.2 1.9
2015-Mar-24 03:00N 44°48' W 087°24'0 0.0 090 / 11026.5 -4.3 1.8
2015-Mar-24 02:00N 44°48' W 087°24'0 0.0 350 / 31026.5 -4.0 1.8
2015-Mar-24 01:00N 44°48' W 087°24'0 0.0 060 / 41026.5 -3.5 2.0
2015-Mar-24 00:00N 44°48' W 087°24'0 0.0 030 / 41026.5 -2.4 1.9
2015-Mar-23 23:00N 44°48' W 087°24'0 0.0 060 / 71026.5 -2.2 1.8
2015-Mar-23 22:00N 44°48' W 087°24'0 0.0 060 / 71026.5 -1.6 1.9
2015-Mar-23 21:00N 44°48' W 087°24'0 0.0 040 / 101026.2 -1.9 1.8
2015-Mar-23 20:00N 44°48' W 087°24'0 0.0 080 / 81027.2 -2.0 1.8
2015-Mar-23 19:00N 44°48' W 087°24'0 0.0 110 / 61027.6 -0.9 1.8
2015-Mar-23 18:00N 44°48' W 087°24'0 0.0 090 / 111028.2 -2.1 1.8
2015-Mar-23 17:00N 44°48' W 087°24'0 0.0 110 / 81028.2 -2.5 1.9
2015-Mar-23 16:00N 44°48' W 087°24'0 0.0 160 / 61028.2 -2.7 1.9
2015-Mar-23 15:00N 44°48' W 087°24'0 0.0 090 / 81027.9 -3.7 1.9
2015-Mar-23 14:00N 44°48' W 087°24'0 0.0 100 / 101027.9 -4.1 1.9
2015-Mar-23 13:00N 44°48' W 087°24'0 0.0 100 / 81028.2 -4.5 1.9
2015-Mar-23 12:00N 44°48' W 087°24'0 0.0 090 / 71027.9 -5.0 1.8
2015-Mar-23 11:00N 44°48' W 087°24'0 0.0 090 / 71027.6 -5.1 1.8
2015-Mar-23 10:00N 44°48' W 087°24'0 0.0 090 / 71027.6 -4.7 1.8
2015-Mar-23 09:00N 44°48' W 087°24'0 0.0 100 / 71027.6 -4.1 1.8
2015-Mar-23 08:00N 44°48' W 087°24'0 0.0 080 / 31027.6 -4.1 1.7
2015-Mar-23 06:00N 44°48' W 087°24'0 0.0 070 / 31027.2 -3.0 1.6
2015-Mar-23 05:00N 44°48' W 087°24'0 0.0 040 / 31027.2 -2.9 1.6
2015-Mar-23 04:00N 44°48' W 087°24'0 0.0 010 / 21026.9 -2.7 1.6
2015-Mar-23 03:00N 44°48' W 087°24'0 0.0 200 / 11026.5 -2.8 1.8
2015-Mar-23 02:00N 44°48' W 087°24'0 0.0 100 / 21025.9 -1.9 1.7
2015-Mar-23 01:00N 44°48' W 087°24'0 0.0 090 / 21025.9 -1.5 1.8
2015-Mar-23 00:00N 44°48' W 087°24'0 0.0 060 / 31025.9 -1.1 1.9
2015-Mar-22 23:00N 44°48' W 087°24'0 0.0 140 / 81025.5 -0.0 2.0
2015-Mar-22 22:00N 44°48' W 087°24'0 0.0 130 / 81025.9 0.5 3.1
2015-Mar-22 21:00N 44°48' W 087°24'0 0.0 150 / 101025.9 1.6 3.4
2015-Mar-22 20:00N 44°48' W 087°24'0 0.0 310 / 51026.2 -0.1 2.9
2015-Mar-22 19:00N 44°48' W 087°24'0 0.0 300 / 41026.9 -1.3 3.1
2015-Mar-22 18:00N 44°48' W 087°24'0 0.0 010 / 61027.6 -2.3 2.8
2015-Mar-22 17:00N 44°48' W 087°24'0 0.0 330 / 51028.2 -3.1 2.9
2015-Mar-22 16:00N 44°48' W 087°24'0 0.0 020 / 71028.2 -4.0 3.0
2015-Mar-22 15:00N 44°48' W 087°24'0 0.0 010 / 81028.2 -4.5 3.1
2015-Mar-22 14:00N 44°48' W 087°24'0 0.0 350 / 51028.2 -4.7 2.9
2015-Mar-22 13:00N 44°48' W 087°24'0 0.0 1028.2 -5.5 2.9
2015-Mar-22 12:00N 44°48' W 087°24'0 0.0 340 / 21027.2 -5.3 2.8
2015-Mar-22 11:00N 44°48' W 087°24'0 0.0 250 / 11026.9 -4.9 2.8
2015-Mar-22 10:00N 44°48' W 087°24'0 0.0 280 / 11026.9 -4.9 2.7
2015-Mar-22 09:00N 44°48' W 087°24'0 0.0 230 / 11026.9 -5.0 2.7
2015-Mar-22 06:00N 44°48' W 087°24'0 0.0 110 / 21026.5 -5.1 2.8
2015-Mar-22 04:00N 44°48' W 087°24'0 0.0 110 / 61025.9 -4.7 2.7
2015-Mar-22 03:00N 44°48' W 087°24'0 0.0 100 / 61024.8 -4.4 2.9
2015-Mar-22 01:00N 44°48' W 087°24'0 0.0 110 / 61023.8 -3.7 3.0
2015-Mar-22 00:00N 44°48' W 087°24'0 0.0 090 / 81023.5 -3.3 2.9
2015-Mar-21 21:00N 44°48' W 087°24'0 0.0 130 / 61022.1 0.1 2.9
2015-Mar-21 17:00N 44°48' W 087°24'0 0.0 1022.1 -1.0 2.7
2015-Mar-21 15:00N 44°48' W 087°24'0 0.0 080 / 61020.8 -1.5 2.7
2015-Mar-21 12:00N 44°48' W 087°24'0 0.0 1017.4 0.3 2.8
2015-Mar-21 11:00N 44°48' W 087°24'0 0.0 340 / 161015.7 1.3 3.0
2015-Mar-21 10:00N 44°48' W 087°24'0 0.0 340 / 121014.7 1.5 2.8
2015-Mar-21 08:00N 44°48' W 087°24'0 0.0 340 / 101013.0 5.0 2.8
2015-Mar-21 05:00N 44°48' W 087°24'0 0.0 280 / 121012.7 7.0 2.6
2015-Mar-21 03:00N 44°48' W 087°24'0 0.0 310 / 61013.0 7.3 2.7
2015-Mar-21 01:00N 44°48' W 087°24'0 0.0 300 / 51012.3 9.8 2.7
2015-Mar-21 00:00N 44°48' W 087°24'0 0.0 240 / 51012.3 10.3 2.7
2015-Mar-20 23:00N 44°48' W 087°24'0 0.0 280 / 81012.0 11.4 2.6
2015-Mar-20 21:00N 44°48' W 087°24'0 0.0 280 / 121012.3 11.4 2.7
2015-Mar-20 20:00N 44°48' W 087°24'0 0.0 240 / 121012.7 10.1 2.7
2015-Mar-20 19:00N 44°48' W 087°24'0 0.0 280 / 91013.3 9.3 2.4
2015-Mar-20 18:00N 44°48' W 087°24'0 0.0 260 / 121014.0 8.3 2.4
2015-Mar-20 17:00N 44°48' W 087°24'0 0.0 260 / 121014.3 7.4 2.4
2015-Mar-20 16:00N 44°48' W 087°24'0 0.0 240 / 101014.3 6.0 2.4
2015-Mar-20 15:00N 44°48' W 087°24'0 0.0 220 / 101015.0 3.7 2.7
2015-Mar-20 14:00N 44°48' W 087°24'0 0.0 220 / 61015.0 2.7 2.6
2015-Mar-20 13:00N 44°48' W 087°24'0 0.0 240 / 31015.7 2.0 2.7
2015-Mar-20 12:00N 44°48' W 087°24'0 0.0 210 / 61015.7 1.8 2.4
2015-Mar-20 11:00N 44°48' W 087°24'0 0.0 180 / 41015.7 1.8 2.5
2015-Mar-20 10:00N 44°48' W 087°24'0 0.0 200 / 31016.0 1.6 2.5
2015-Mar-20 09:00N 44°48' W 087°24'0 0.0 360 / 41016.4 1.8 2.6
2015-Mar-20 08:00N 44°48' W 087°24'0 0.0 210 / 71017.1 1.9 2.5
2015-Mar-20 07:00N 44°48' W 087°24'0 0.0 210 / 61017.4 1.7 2.4
2015-Mar-20 06:00N 44°48' W 087°24'0 0.0 190 / 71017.7 1.2 2.3
2015-Mar-20 05:00N 44°48' W 087°24'0 0.0 150 / 31018.4 1.6 2.3
2015-Mar-20 04:00N 44°48' W 087°24'0 0.0 200 / 31018.8 1.2 2.6
2015-Mar-20 03:00N 44°48' W 087°24'   170 / 41019.4 1.0 2.9

Dump ship's entire track history